Wetterstation Rottenburg Seebronn / 442m msl / http://mut-lambrecht.de
LETZTE AKTUALISIERUNG UM: 03:55 DATUM: August 20 2022, time of next update: 04:00
Aktuelles WetterClear/Night Aktuelle Temperatur 17.9°C (64.2°F) (Hitze-Index 17.9°C ), Apparent temp 18.3°C
Höchsttemperatur (seit Mitternacht)19.2°C um: 00:04 Tiefsttemperatur (seit Mitternacht)17.7°C um: 02:36
Windgeschwindigkeit (10 Minuten )5.6 kmh (3.0 kts) Windrichtung (Dir) (10 Minuten )WSW (255°)
Windchill Temperatur 17.9°C Windspitzen (letzte Std)15.8 kmh (8.5 kts) um: 03:32
Windspitzen (seit Mitternacht)22.8 kmh (12.3 kts) um: 00:16 Höchstes Windmittel / Minute (seit Mitternacht)9.8 kmh (5.3 kts) um: 00:16
Regenmenge (letzte Std)0.0 mm Regenmenge (seit Mitternacht)0.0 mm (0.00 in.)---
Regenmenge diesen Monat 0.0 mm (0.00 in.) Regenmenge seit Jahresbeginn 20.0 mm (0.79 in.)
Höchste Regenmenge pro Minute (letzte Std)0.0 mm/min Höchste Regenmenge pro Stunde (letzte 6 Std)0.0 mm/stunde
Regenmenge Gestern 0.0 mm Taupunkt 14.2°C (Wet Bulb :15.8°C )
Luftfeuchtigkeit 79 %, Humidex 21.4°C Aktueller Luftdruck (auf Meereshöhe bezogen)1016.8 hPa
Luftdrucktendenz +0.2 hPa (letzte Std) Trend (letzte 1 Std)gleichbleibend
Luftdrucktendenz (letzte 12 Std)+1.4 hPa Luftdrucktendenz (letzte 6 Std)+0.1 hPa


Grafische Darstellung der letzten 24 Stunden.
Grafische Darstellung der letzten 48 Stunden.
Grafische Darstellung der letzten 72 Stunden.
Grafische Darstellung der letzten month.


Weather report/warning/Metars

Stuttgart-Echterdingen, Germany (EDDS) 48-41N 009-13E 391M
Aug 19, 2022 - 08:50 PM EDT / 2022.08.20 0050 UTC
Wind: from the WSW (250 degrees) at 3 MPH (3 KT) (direction variable):0
Visibility: greater than 7 mile(s):0
Temperature: 64 F (18 C)
Dew Point: 59 F (15 C)
Relative Humidity: 82%
Pressure (altimeter): 30.00 in. Hg (1016 hPa)
ob: EDDS 200050Z AUTO 25003KT 210V280 CAVOK 18/15 Q1016
cycle: 1
Karlsruhe, Baden Wurttemberg, Germany (EDSB) 48-46-43N 008-04-47E
Aug 19, 2022 - 08:50 PM EDT / 2022.08.20 0050 UTC
Wind: from the SSW (210 degrees) at 7 MPH (6 KT):0
Visibility: greater than 7 mile(s):0
Sky conditions: mostly cloudy
Temperature: 68 F (20 C)
Dew Point: 60 F (16 C)
Relative Humidity: 77%
Pressure (altimeter): 30.00 in. Hg (1016 hPa)
ob: EDSB 200050Z AUTO 21006KT 9999 SCT047/// BKN053/// BKN064/// 20/16 Q1016
cycle: 1
Lahr, CAN-AFB, Germany (EDTL) 48-22-09N 007-49-40E
Aug 19, 2022 - 01:50 PM EDT / 2022.08.19 1750 UTC
Wind: from the SSW (200 degrees) at 9 MPH (8 KT):0
Visibility: 5 mile(s):0
Temperature: 75 F (24 C)
Dew Point: 62 F (17 C)
Relative Humidity: 64%
Pressure (altimeter): 29.97 in. Hg (1015 hPa)
ob: EDTL 191750Z 20008KT 9000 NSC 24/17 Q1015
cycle: 18
Laupheim, Germany (ETHL) 48-13N 009-55E 550M
Aug 19, 2022 - 08:20 PM EDT / 2022.08.20 0020 UTC
Wind: from the WSW (240 degrees) at 8 MPH (7 KT):0
Visibility: greater than 7 mile(s):0
Temperature: 62 F (17 C)
Dew Point: 60 F (16 C)
Relative Humidity: 93%
Pressure (altimeter): 30.03 in. Hg (1017 hPa)
ob: ETHL 200020Z AUTO 24007KT 9999 // ////// 17/16 Q1017 ///
cycle: 0


Klicken Sie hier, um zu den Durchschnitts-, Extrem-, Monats- oder Tageswerten zu gelangen


Die Wetterdaten werden alle 5 Minuten aktualisiert.
Die 3 stündige Echtzeitgrafik wird jede Minute aktualisiert.
Bei der 3 stündige Echtzeitgrafik sind derzeit die Skalenfarben von Winddurchschnitt u. Windböen vertauscht. (Softwarebug)

Drücken Sie gegebenenfalls auf "Aktualisieren" in Ihrem Browser, um die aktuellsten Daten zu erhalten.